Time;durP1;ratioP1;P1;durP2;ratioP2;P2;SDS_P1;SDS_P2;PMS_P1;PMS_P2;Temp;Humidity;BMP_temperature;BMP_pressure;BME280_temperature;BME280_humidity;BME280_pressure;Samples;Min_cycle;Max_cycle;Signal;HPM_P1;HPM_P2
2023/11/27 00:02:01;;;;;;;0.80;0.80;;;-6.00;99.90;;;;;;1935303;72;25322;-89
2023/11/27 00:04:51;;;;;;;0.63;0.63;;;-6.00;99.90;;;;;;1943243;73;25313;-89
2023/11/27 00:07:41;;;;;;;0.67;0.67;;;-6.00;99.90;;;;;;1945420;73;25274;-89
2023/11/27 00:10:30;;;;;;;0.80;0.80;;;-5.80;99.90;;;;;;1950203;72;25262;-89
2023/11/27 00:13:19;;;;;;;1.80;1.00;;;-5.80;99.90;;;;;;1932025;72;25229;-88
2023/11/27 00:16:09;;;;;;;0.67;0.67;;;-5.70;99.90;;;;;;1908395;73;25784;-88
2023/11/27 00:18:58;;;;;;;1.57;0.80;;;-5.60;99.90;;;;;;1900080;73;25185;-88
2023/11/27 00:21:46;;;;;;;0.77;0.77;;;-5.60;99.90;;;;;;1917230;74;25215;-88
2023/11/27 00:24:36;;;;;;;0.87;0.87;;;-5.60;99.90;;;;;;1890758;75;25216;-88
2023/11/27 00:27:27;;;;;;;2.17;1.00;;;-5.60;99.90;;;;;;1919136;74;25210;-88
2023/11/27 00:30:16;;;;;;;1.17;0.83;;;-5.70;99.90;;;;;;1922682;74;25846;-88
2023/11/27 00:33:05;;;;;;;0.70;0.70;;;-5.70;99.90;;;;;;1913742;73;25259;-88
2023/11/27 00:35:54;;;;;;;1.77;1.00;;;-5.70;99.90;;;;;;1908978;73;25679;-88
2023/11/27 00:38:43;;;;;;;1.07;0.90;;;-5.70;99.90;;;;;;1904736;74;25274;-88
2023/11/27 00:41:32;;;;;;;1.33;0.90;;;-5.70;99.90;;;;;;1956113;72;25155;-88
2023/11/27 00:44:21;;;;;;;0.70;0.70;;;-5.60;99.90;;;;;;1907779;74;25246;-88
2023/11/27 00:49:57;;;;;;;3.30;0.80;;;-5.70;99.90;;;;;;1899230;74;27838;-89
2023/11/27 00:52:45;;;;;;;0.80;0.80;;;-5.70;99.90;;;;;;1875957;75;25252;-89
2023/11/27 00:55:34;;;;;;;1.03;0.93;;;-5.60;99.90;;;;;;1860745;75;25184;-89
2023/11/27 00:58:22;;;;;;;1.43;0.90;;;-5.50;99.90;;;;;;1862686;76;25295;-90
2023/11/27 01:01:12;;;;;;;0.93;0.80;;;-5.50;99.90;;;;;;1822093;78;25320;-89
2023/11/27 01:04:01;;;;;;;1.40;1.00;;;-5.40;99.90;;;;;;1814080;78;25273;-89
2023/11/27 01:06:53;;;;;;;2.30;0.90;;;-5.30;99.90;;;;;;1830595;78;25296;-87
2023/11/27 01:09:43;;;;;;;1.17;0.90;;;-5.30;99.90;;;;;;1826181;78;25683;-89
2023/11/27 01:12:34;;;;;;;0.90;0.60;;;-5.30;99.90;;;;;;1822024;78;25763;-89
2023/11/27 01:15:22;;;;;;;0.70;0.70;;;-5.20;99.90;;;;;;1800748;78;25381;-89
2023/11/27 03:20:11;;;;;;;0.60;0.60;;;-3.40;99.90;;;;;;1951189;72;27590;-90
2023/11/27 03:25:55;;;;;;;1.80;0.50;;;-3.30;99.90;;;;;;1963479;72;27005;-90
2023/11/27 03:28:46;;;;;;;0.60;0.60;;;-3.30;99.90;;;;;;1912007;74;25187;-90
2023/11/27 03:31:37;;;;;;;0.57;0.57;;;-3.20;99.90;;;;;;1921772;73;25273;-90
2023/11/27 03:34:30;;;;;;;0.50;0.50;;;-3.20;99.90;;;;;;1923525;74;25241;-90
2023/11/27 03:37:19;;;;;;;0.50;0.50;;;-3.20;99.90;;;;;;1927933;74;25268;-90
2023/11/27 03:40:12;;;;;;;0.40;0.40;;;-3.20;99.90;;;;;;1917270;73;25310;-89
2023/11/27 03:43:02;;;;;;;0.57;0.37;;;-3.20;99.90;;;;;;1913229;74;25224;-89
2023/11/27 03:45:52;;;;;;;0.60;0.60;;;-3.10;99.90;;;;;;1916609;73;25270;-89
2023/11/27 04:11:39;;;;;;;2.10;0.60;;;-3.20;99.90;;;;;;1944433;72;28061;-91
2023/11/27 04:14:30;;;;;;;0.33;0.33;;;-3.10;99.90;;;;;;1919900;73;25731;-91
2023/11/27 04:17:21;;;;;;;0.60;0.60;;;-3.10;99.90;;;;;;1926321;73;25232;-91
2023/11/27 04:20:32;;;;;;;0.63;0.63;;;-3.10;99.90;;;;;;1936064;73;25845;-90
2023/11/27 04:23:33;;;;;;;0.57;0.57;;;-3.10;99.90;;;;;;1937045;73;25788;-90
2023/11/27 04:26:25;;;;;;;0.60;0.60;;;-3.10;99.90;;;;;;1905260;73;25661;-90
2023/11/27 04:29:16;;;;;;;0.60;0.60;;;-3.10;99.90;;;;;;1916568;73;25257;-90
2023/11/27 04:32:14;;;;;;;1.00;0.70;;;-3.00;99.90;;;;;;1926374;73;25263;-90
2023/11/27 04:35:06;;;;;;;0.60;0.60;;;-3.00;99.90;;;;;;1930345;73;25271;-90
2023/11/27 04:37:57;;;;;;;0.50;0.50;;;-3.00;99.90;;;;;;1934800;73;25259;-90
2023/11/27 04:40:48;;;;;;;0.60;0.60;;;-3.00;99.90;;;;;;1923869;73;25184;-90
2023/11/27 04:43:37;;;;;;;0.67;0.67;;;-3.00;99.90;;;;;;1936432;72;25300;-90
2023/11/27 04:46:33;;;;;;;0.80;0.80;;;-3.00;99.90;;;;;;1915999;73;25755;-90
2023/11/27 04:49:27;;;;;;;0.67;0.67;;;-2.90;99.90;;;;;;1911813;74;25207;-90
2023/11/27 04:52:20;;;;;;;0.50;0.50;;;-3.00;99.90;;;;;;1905489;75;25309;-89
2023/11/27 06:01:19;;;;;;;2.00;1.17;;;-2.50;99.90;;;;;;1950729;70;26408;-90
2023/11/27 06:04:08;;;;;;;0.80;0.80;;;-2.60;99.90;;;;;;1953203;72;25270;-90
2023/11/27 06:11:13;;;;;;;0.63;0.63;;;-2.50;99.90;;;;;;1982109;71;25290;-89
2023/11/27 06:14:07;;;;;;;0.70;0.70;;;-2.60;99.90;;;;;;2008721;71;25187;-90
2023/11/27 06:21:37;;;;;;;1.10;1.10;;;-2.60;99.90;;;;;;1993841;71;25797;-90
2023/11/27 06:39:51;;;;;;;1.10;1.00;;;-2.00;99.90;;;;;;1950213;73;25732;-90
2023/11/27 07:42:46;;;;;;;1.97;1.20;;;-1.90;99.90;;;;;;1912163;74;27044;-89
2023/11/27 07:59:03;;;;;;;1.13;1.10;;;-1.90;99.90;;;;;;1972614;69;27549;-92
2023/11/27 09:54:39;;;;;;;2.10;1.03;;;-2.50;99.90;;;;;;1948677;72;27180;-92
2023/11/27 10:12:47;;;;;;;5.07;1.30;;;-2.90;99.90;;;;;;1923774;73;25755;-92
2023/11/27 10:20:01;;;;;;;1.27;0.93;;;-2.90;99.90;;;;;;1919053;73;25230;-92
2023/11/27 10:26:40;;;;;;;1.33;1.23;;;-3.10;99.90;;;;;;1931682;73;25233;-92
2023/11/27 10:29:33;;;;;;;4.43;1.57;;;-3.00;99.90;;;;;;1917671;73;25303;-91
2023/11/27 10:33:01;;;;;;;4.30;1.73;;;-3.10;99.90;;;;;;1916192;73;25339;-91
2023/11/27 10:36:36;;;;;;;20.33;2.70;;;-3.10;99.90;;;;;;1933412;73;25795;-91
2023/11/27 10:40:04;;;;;;;3.53;1.10;;;-3.00;99.90;;;;;;1937996;73;25448;-90
2023/11/27 10:42:54;;;;;;;1.40;1.20;;;-3.00;99.90;;;;;;1925449;73;25750;-91
2023/11/27 10:46:22;;;;;;;2.47;1.43;;;-2.90;99.90;;;;;;1915641;74;25740;-91
2023/11/27 11:07:02;;;;;;;1.57;1.40;;;-2.70;99.90;;;;;;1936209;73;27078;-91
2023/11/27 11:26:32;;;;;;;1.13;0.90;;;-3.40;99.90;;;;;;1952727;72;27454;-90
2023/11/27 11:29:24;;;;;;;2.77;1.30;;;-3.30;99.90;;;;;;1920698;73;25207;-89
2023/11/27 11:32:16;;;;;;;1.63;1.30;;;-3.30;99.90;;;;;;1931435;72;25300;-89
2023/11/27 11:35:11;;;;;;;1.93;1.20;;;-3.20;99.90;;;;;;1929025;72;25326;-90
2023/11/27 12:18:44;;;;;;;2.40;1.77;;;-3.20;99.90;;;;;;1907350;74;26088;-92
2023/11/27 12:21:35;;;;;;;2.47;1.17;;;-2.50;99.90;;;;;;1869027;76;25355;-91
2023/11/27 12:24:22;;;;;;;2.97;1.80;;;-2.60;99.90;;;;;;1870673;76;25343;-91
2023/11/27 12:27:11;;;;;;;10.33;1.80;;;-2.60;99.90;;;;;;1875048;76;25371;-92
2023/11/27 12:57:33;;;;;;;1.73;1.57;;;-2.90;99.90;;;;;;1977309;71;27409;-90
2023/11/27 13:03:43;;;;;;;2.37;1.53;;;-3.00;99.90;;;;;;1945249;72;26921;-90
2023/11/27 13:06:32;;;;;;;1.63;1.30;;;-3.20;99.90;;;;;;1931368;72;25328;-89
2023/11/27 13:09:24;;;;;;;3.73;1.40;;;-3.20;99.90;;;;;;1937543;72;25237;-90
2023/11/27 13:12:18;;;;;;;2.77;1.60;;;-3.20;99.90;;;;;;1932207;73;25849;-90
2023/11/27 13:15:11;;;;;;;2.50;1.50;;;-3.30;99.90;;;;;;1920276;72;25352;-89
2023/11/27 13:18:28;;;;;;;2.27;1.50;;;-3.30;99.90;;;;;;1943867;72;25239;-89
2023/11/27 13:21:21;;;;;;;7.63;2.10;;;-3.30;99.90;;;;;;1930133;72;25274;-89
2023/11/27 13:24:13;;;;;;;3.73;1.70;;;-3.30;99.90;;;;;;1917832;73;25289;-89
2023/11/27 13:27:05;;;;;;;1.90;1.43;;;-3.40;99.90;;;;;;1937506;73;25173;-89
2023/11/27 13:52:33;;;;;;;4.03;1.60;;;-3.70;99.90;;;;;;1941421;72;27336;-89
2023/11/27 13:55:22;;;;;;;3.20;1.80;;;-3.80;99.90;;;;;;1919465;73;25224;-88
2023/11/27 13:58:19;;;;;;;1.97;1.10;;;-3.90;99.90;;;;;;1921588;73;25706;-89
2023/11/27 14:01:19;;;;;;;9.23;1.30;;;-3.90;99.90;;;;;;1916337;73;25318;-88
2023/11/27 14:07:19;;;;;;;3.37;1.60;;;-4.00;99.90;;;;;;1926990;73;25980;-88
2023/11/27 15:07:26;;;;;;;3.30;2.37;;;-4.70;99.90;;;;;;1922307;74;26278;-89
2023/11/27 15:24:58;;;;;;;11.90;2.60;;;-5.20;99.90;;;;;;1909351;74;26998;-88
2023/11/27 16:43:48;;;;;;;4.13;2.00;;;-5.90;99.90;;;;;;1915358;74;27999;-88
2023/11/27 18:49:02;;;;;;;3.07;2.00;;;-6.90;99.90;;;;;;1924151;72;26460;-88
2023/11/27 20:15:13;;;;;;;6.40;1.80;;;-7.20;99.90;;;;;;1915137;74;27105;-89
2023/11/27 20:18:04;;;;;;;1.60;1.10;;;-7.30;99.90;;;;;;1884381;75;25685;-90
2023/11/27 20:20:52;;;;;;;1.60;1.40;;;-7.30;99.90;;;;;;1897819;75;25849;-90
2023/11/27 22:04:48;;;;;;;2.77;1.90;;;-8.60;99.90;;;;;;1959508;71;27008;-87
2023/11/27 22:07:37;;;;;;;3.40;1.67;;;-8.60;99.90;;;;;;2043119;69;25849;-90
2023/11/27 22:10:28;;;;;;;1.33;1.23;;;-8.80;99.90;;;;;;2060477;69;25899;-87
2023/11/27 22:13:18;;;;;;;1.20;1.10;;;-8.80;99.90;;;;;;2040583;69;25833;-87
2023/11/27 22:16:09;;;;;;;1.57;1.30;;;-8.80;99.90;;;;;;2041073;69;25838;-89
2023/11/27 22:48:31;;;;;;;2.03;1.10;;;-8.90;99.90;;;;;;2041737;69;26746;-88
2023/11/27 22:51:22;;;;;;;0.60;0.60;;;-8.90;99.90;;;;;;1970568;71;25875;-88
2023/11/27 22:54:10;;;;;;;1.13;0.90;;;-9.00;99.90;;;;;;1967655;72;26248;-88
2023/11/27 22:56:59;;;;;;;1.53;0.90;;;-9.10;99.90;;;;;;1920270;73;25894;-88
2023/11/27 22:59:49;;;;;;;1.80;1.53;;;-9.10;99.90;;;;;;1903083;75;25889;-88
2023/11/27 23:05:36;;;;;;;2.53;1.67;;;-9.10;99.90;;;;;;1946103;72;29435;-88
2023/11/27 23:08:25;;;;;;;1.23;1.17;;;-9.10;99.90;;;;;;1915870;73;25983;-88
2023/11/27 23:11:14;;;;;;;6.33;1.73;;;-9.20;99.90;;;;;;1871929;76;25880;-88
2023/11/27 23:14:03;;;;;;;4.13;1.10;;;-9.20;99.90;;;;;;1929791;73;25912;-88
2023/11/27 23:16:52;;;;;;;1.30;1.20;;;-9.20;99.90;;;;;;1925818;73;26435;-89
2023/11/27 23:19:57;;;;;;;1.20;1.10;;;-9.20;99.90;;;;;;1931440;73;25945;-87
2023/11/27 23:22:46;;;;;;;2.83;1.23;;;-9.20;99.90;;;;;;1919628;73;25793;-88
